createdAt,value
2023-05-05T00:01:17.142Z,66.10
2023-05-05T00:06:19.541Z,64.33
2023-05-05T00:11:21.918Z,64.54
2023-05-05T00:16:24.233Z,65.03
2023-05-05T00:21:27.741Z,65.75
2023-05-05T00:26:30.083Z,66.25
2023-05-05T00:31:32.560Z,68.00
2023-05-05T00:36:34.993Z,67.43
2023-05-05T00:41:37.368Z,66.61
2023-05-05T00:46:40.718Z,68.63
2023-05-05T00:51:43.137Z,69.50
2023-05-05T00:56:46.012Z,67.76
2023-05-05T01:01:48.188Z,68.23
2023-05-05T01:07:25.936Z,69.59
2023-05-05T01:12:41.552Z,70.07
2023-05-05T01:17:56.187Z,70.60
2023-05-05T01:23:06.053Z,71.60
2023-05-05T01:28:48.320Z,71.30
2023-05-05T01:33:59.071Z,69.70
2023-05-05T01:39:03.509Z,67.27
2023-05-05T01:44:08.437Z,67.48
2023-05-05T01:49:12.677Z,67.93
2023-05-05T01:54:16.767Z,68.14
2023-05-05T01:59:21.063Z,69.37
2023-05-05T02:04:24.571Z,67.93
2023-05-05T02:09:29.514Z,68.19
2023-05-05T02:14:34.367Z,67.67
2023-05-05T02:19:42.340Z,66.56
2023-05-05T02:24:45.356Z,68.11
2023-05-05T02:29:52.028Z,68.86
2023-05-05T02:34:56.000Z,69.09
2023-05-05T02:40:06.310Z,69.70
2023-05-05T02:45:22.848Z,71.33
2023-05-05T02:50:26.867Z,69.58
2023-05-05T02:55:55.248Z,71.54
2023-05-05T03:01:12.017Z,70.04
2023-05-05T03:06:18.396Z,68.68
2023-05-05T03:11:33.010Z,68.37
2023-05-05T03:16:39.030Z,70.05
2023-05-05T03:21:42.836Z,69.11
2023-05-05T03:26:47.500Z,67.40
2023-05-05T03:31:50.902Z,68.89
2023-05-05T03:36:53.534Z,68.95
2023-05-05T03:41:55.980Z,73.13
2023-05-05T03:46:59.961Z,73.64
2023-05-05T03:52:04.794Z,71.84
2023-05-05T03:57:07.636Z,70.93
2023-05-05T04:02:09.856Z,72.55
2023-05-05T04:07:12.183Z,74.47
2023-05-05T04:12:14.575Z,75.22
2023-05-05T04:17:17.058Z,74.81
2023-05-05T04:22:19.717Z,75.49
2023-05-05T04:27:22.077Z,76.97
2023-05-05T04:32:24.803Z,79.40
2023-05-05T04:37:27.528Z,79.51
2023-05-05T04:42:30.545Z,79.65
2023-05-05T04:47:38.220Z,77.88
2023-05-05T04:52:41.143Z,79.69
2023-05-05T04:57:43.682Z,81.10
2023-05-05T05:02:46.107Z,77.19
2023-05-05T05:07:48.265Z,81.67
2023-05-05T05:12:50.682Z,81.36
2023-05-05T05:17:53.066Z,80.37
2023-05-05T05:22:55.727Z,78.71
2023-05-05T05:28:08.753Z,77.68
2023-05-05T05:33:16.020Z,76.73
2023-05-05T05:38:19.810Z,76.66
2023-05-05T05:43:23.550Z,78.52
2023-05-05T05:48:28.604Z,80.04
2023-05-05T05:53:32.108Z,81.04
2023-05-05T05:58:34.472Z,79.99
2023-05-05T06:03:37.000Z,78.61
2023-05-05T06:08:39.444Z,78.92
2023-05-05T06:13:42.210Z,79.82
2023-05-05T06:18:44.810Z,81.67
2023-05-05T06:23:47.956Z,79.56
2023-05-05T06:28:50.700Z,80.34
2023-05-05T06:33:52.941Z,79.13
2023-05-05T06:38:55.253Z,78.51
2023-05-05T06:43:57.503Z,78.85
2023-05-05T06:48:59.882Z,78.17
2023-05-05T06:54:02.177Z,77.96
2023-05-05T06:59:04.451Z,80.87
2023-05-05T07:04:07.179Z,81.29
2023-05-05T07:09:09.689Z,79.33
2023-05-05T07:14:11.917Z,77.63
2023-05-05T07:19:14.027Z,76.85
2023-05-05T07:24:16.377Z,75.61
2023-05-05T07:29:18.541Z,75.27
2023-05-05T07:34:20.741Z,77.11
2023-05-05T07:39:23.058Z,78.46
2023-05-05T07:44:25.726Z,76.79
2023-05-05T07:49:28.090Z,75.22
2023-05-05T07:54:30.460Z,75.68
2023-05-05T07:59:32.752Z,75.39
2023-05-05T08:04:35.062Z,72.95
2023-05-05T08:09:38.564Z,73.61
2023-05-05T08:14:42.574Z,71.88
2023-05-05T08:19:44.863Z,72.70
2023-05-05T08:24:47.085Z,70.52
2023-05-05T08:29:49.364Z,70.57
2023-05-05T08:34:51.583Z,69.98
2023-05-05T08:39:53.888Z,69.15
2023-05-05T08:44:58.344Z,68.99
2023-05-05T08:50:01.977Z,69.80
2023-05-05T08:55:26.908Z,67.28
2023-05-05T09:00:29.268Z,67.75
2023-05-05T09:05:31.656Z,67.70
2023-05-05T09:10:34.523Z,65.30
2023-05-05T09:15:39.048Z,67.00
2023-05-05T09:20:42.168Z,63.79
2023-05-05T09:25:47.504Z,63.93
2023-05-05T09:30:49.682Z,65.63
2023-05-05T09:35:54.721Z,62.14
2023-05-05T09:40:56.982Z,61.71
2023-05-05T09:46:08.906Z,62.58
2023-05-05T09:51:11.451Z,61.03
2023-05-05T09:56:13.844Z,62.16
2023-05-05T10:01:24.140Z,61.63
2023-05-05T10:06:48.415Z,60.80
2023-05-05T10:11:51.561Z,60.53
2023-05-05T10:16:55.998Z,59.91
2023-05-05T10:22:04.500Z,59.14
2023-05-05T10:27:22.684Z,58.01
2023-05-05T10:32:54.403Z,56.09
2023-05-05T10:38:00.830Z,55.55
2023-05-05T10:43:03.309Z,55.50
2023-05-05T10:48:12.036Z,54.76
2023-05-05T10:53:24.270Z,52.98
2023-05-05T10:58:55.524Z,53.62
2023-05-05T11:04:23.614Z,55.50
2023-05-05T11:09:29.810Z,52.94
2023-05-05T11:14:32.117Z,51.66
2023-05-05T11:19:43.788Z,53.23
2023-05-05T11:24:47.354Z,54.09
2023-05-05T11:30:16.916Z,53.77
2023-05-05T11:35:19.488Z,54.52
2023-05-05T11:40:28.704Z,53.01
2023-05-05T11:45:31.220Z,52.77
2023-05-05T11:50:33.932Z,52.64
2023-05-05T11:55:36.422Z,51.80
2023-05-05T12:00:38.768Z,51.39
2023-05-05T12:05:41.896Z,52.16
2023-05-05T12:10:44.320Z,51.96
2023-05-05T12:15:47.179Z,54.09
2023-05-05T12:20:49.707Z,51.47
2023-05-05T12:25:52.025Z,51.96
2023-05-05T12:31:00.494Z,51.33
2023-05-05T12:36:02.976Z,51.48
2023-05-05T12:41:05.522Z,50.22
2023-05-05T12:46:14.901Z,48.11
2023-05-05T12:51:20.713Z,49.21
2023-05-05T12:56:35.939Z,46.87
2023-05-05T13:01:53.600Z,46.73
2023-05-05T13:07:14.742Z,46.54
2023-05-05T13:12:21.403Z,48.23
2023-05-05T13:17:25.131Z,49.00
2023-05-05T13:22:27.389Z,47.45
2023-05-05T13:27:29.736Z,49.88
2023-05-05T13:32:32.035Z,49.22
2023-05-05T13:37:34.219Z,50.48
2023-05-05T13:42:36.509Z,54.21
2023-05-05T13:47:39.115Z,52.00
2023-05-05T13:52:41.936Z,50.79
2023-05-05T13:57:44.227Z,54.46
2023-05-05T14:02:47.940Z,51.47
2023-05-05T14:07:50.306Z,51.49
2023-05-05T14:12:52.723Z,56.18
2023-05-05T14:17:56.283Z,59.20
2023-05-05T14:22:58.572Z,57.66
2023-05-05T14:28:00.717Z,65.88
2023-05-05T14:33:03.065Z,76.25
2023-05-05T14:38:05.701Z,73.21
2023-05-05T14:43:08.044Z,69.57
2023-05-05T14:48:11.002Z,69.64
2023-05-05T14:53:13.252Z,73.03
2023-05-05T14:58:15.682Z,74.33
2023-05-05T15:03:18.117Z,77.68
2023-05-05T15:08:20.486Z,73.36
2023-05-05T15:13:22.635Z,75.23
2023-05-05T15:18:25.030Z,77.26
2023-05-05T15:23:27.258Z,72.88
2023-05-05T15:28:29.362Z,73.84
2023-05-05T15:33:31.565Z,74.58
2023-05-05T15:38:33.790Z,77.41
2023-05-05T15:43:36.205Z,79.02
2023-05-05T15:48:38.504Z,79.19
2023-05-05T15:53:40.762Z,78.35
2023-05-05T15:58:43.053Z,80.11
2023-05-05T16:03:45.327Z,79.01
2023-05-05T16:08:48.926Z,76.22
2023-05-05T16:13:51.204Z,74.01
2023-05-05T16:18:53.440Z,73.57
2023-05-05T16:23:56.960Z,70.29
2023-05-05T16:28:59.388Z,67.87
2023-05-05T16:34:01.760Z,70.17
2023-05-05T16:39:04.239Z,73.76
2023-05-05T16:44:07.087Z,72.79
2023-05-05T16:49:09.352Z,71.97
2023-05-05T16:54:11.457Z,74.18
2023-05-05T16:59:15.696Z,72.26
2023-05-05T17:04:17.941Z,73.08
2023-05-05T17:09:24.870Z,73.89
2023-05-05T17:14:27.473Z,73.15
2023-05-05T17:19:29.664Z,74.45
2023-05-05T17:24:31.781Z,74.27
2023-05-05T17:29:36.939Z,74.57
2023-05-05T17:34:39.288Z,73.56
2023-05-05T17:39:41.570Z,71.95
2023-05-05T17:44:44.996Z,71.55
2023-05-05T17:49:52.620Z,71.43
2023-05-05T17:54:54.815Z,70.70
2023-05-05T17:59:57.051Z,70.32
2023-05-05T18:04:59.312Z,70.46
2023-05-05T18:10:01.602Z,71.83
2023-05-05T18:15:05.574Z,71.13
2023-05-05T18:20:08.583Z,70.76
2023-05-05T18:25:11.048Z,72.90
2023-05-05T18:30:13.755Z,72.55
2023-05-05T18:35:16.057Z,77.49
2023-05-05T18:40:18.611Z,79.20
2023-05-05T18:45:20.911Z,77.69
2023-05-05T18:50:23.241Z,80.10
2023-05-05T18:55:25.624Z,78.40
2023-05-05T19:00:27.874Z,78.07
2023-05-05T19:05:30.203Z,78.38
2023-05-05T19:10:32.452Z,81.42
2023-05-05T19:15:34.758Z,81.33
2023-05-05T19:20:38.640Z,81.41
2023-05-05T19:25:41.074Z,78.07
2023-05-05T19:30:43.452Z,78.93
2023-05-05T19:35:45.917Z,79.17
2023-05-05T19:40:48.075Z,78.29
2023-05-05T19:45:50.359Z,78.01
2023-05-05T19:50:53.214Z,78.04
2023-05-05T19:55:55.690Z,81.34
2023-05-05T20:00:58.003Z,80.95
2023-05-05T20:06:00.161Z,80.11
2023-05-05T20:11:02.387Z,76.30
2023-05-05T20:16:06.146Z,74.84
2023-05-05T20:21:08.609Z,75.75
2023-05-05T20:26:11.505Z,75.53
2023-05-05T20:31:15.562Z,75.38
2023-05-05T20:36:18.650Z,76.94
2023-05-05T20:41:20.887Z,78.24
2023-05-05T20:46:23.156Z,77.93
2023-05-05T20:51:29.349Z,75.38
2023-05-05T20:56:31.604Z,78.38
2023-05-05T21:01:34.574Z,78.32
2023-05-05T21:06:36.863Z,78.84
2023-05-05T21:11:39.065Z,76.17
2023-05-05T21:16:41.360Z,75.52
2023-05-05T21:21:43.758Z,75.50
2023-05-05T21:26:46.193Z,79.52
2023-05-05T21:31:48.456Z,79.51
2023-05-05T21:36:51.479Z,79.80
2023-05-05T21:41:53.615Z,78.69
2023-05-05T21:46:56.272Z,79.37
2023-05-05T21:51:58.576Z,78.01
2023-05-05T21:57:01.648Z,79.00
2023-05-05T22:02:03.947Z,79.88
2023-05-05T22:07:06.498Z,79.70
2023-05-05T22:12:08.766Z,80.69
2023-05-05T22:17:11.629Z,81.39
2023-05-05T22:22:13.948Z,81.79
2023-05-05T22:27:16.161Z,82.43
2023-05-05T22:32:18.335Z,80.54
2023-05-05T22:37:20.868Z,82.54
2023-05-05T22:42:23.120Z,82.70
2023-05-05T22:47:25.647Z,83.87
2023-05-05T22:52:29.098Z,84.78
2023-05-05T22:57:31.497Z,84.44
2023-05-05T23:02:33.752Z,83.10
2023-05-05T23:07:36.022Z,84.68
2023-05-05T23:12:38.456Z,80.45
2023-05-05T23:17:40.684Z,77.75
2023-05-05T23:22:42.867Z,81.04
2023-05-05T23:27:45.216Z,79.67
2023-05-05T23:32:47.612Z,80.95
2023-05-05T23:37:50.267Z,81.14
2023-05-05T23:42:52.391Z,78.76
2023-05-05T23:47:55.116Z,81.19
2023-05-05T23:52:57.471Z,82.17
2023-05-05T23:57:59.773Z,80.07
